Aérodrome :
LOGIN :

S'inscrire | Disclaimer

   EN    FR    IT 

 










Légende :    VFR   VFR Marginal   IFR   IFR Intensif   IFR Très Intensif
Visi : 
Plafond : 
>= 8 km
>= 3000ft
5 à 8 km
1000 à 3000 ft
1500m à 5 km
500 à 1000 ft
800 à 1500m
200 à 500 ft
< 800m
< 200 ft
Symboles :   Orages  Brouillard  Fortes neiges  Fortes précipitations  Vent > 20 kt
SIGMETs :   Divers  Orages  Givrage  Turbulence  Onde Orograph.  Cendres Volcan.






- Altitude de l'aérodrome : 40 ft
- Code IATA : RMI


LIPR - Federico Fellini Int. Rimini

DERNIER METAR :
  • 201420Z 09008KT 060V120 8000 FEW020CB SCT060 19/18 Q1009

METARs EXPIRÉS :
  • 201350Z 08009KT 050V110 9999 VCTS FEW010CB SCT050 20/18 Q1009
  • 201320Z 10008KT 060V120 8000 VCTS FEW010CB SCT030 20/18 Q1010
  • 201250Z 09007KT 040V120 8000 VCTS FEW007 SCT030CB 20/18 Q1010
  • 201220Z 06007KT 040V110 8000 VCTS FEW007 SCT035CB 21/18 Q1010
  • 201150Z 06006KT 8000 FEW010 SCT050 20/17 Q1011
  • 201120Z 04007KT 8000 -RA SCT050 19/17 Q1011
  • 201050Z 05006KT 020V090 9999 SCT060 20/17 Q1011
  • 201020Z 05006KT 020V080 9999 SCT050 20/17 Q1011
  • 200950Z 07005KT 020V100 9999 BKN060 20/17 Q1011

TAF TAF LIPR
Valide du 20 à 12h jusqu'au 21 à 12h UTC


201100Z 2012/2112 09012KT 8000 SCT045
TEMPO 2016/2024 4000 TSRA BKN005
BECMG 2100/2102 14008KT
TEMPO 2106/2110 4000 TSRA BKN010
BECMG 2108/2110 27012KT



MET'MAP, la Météo Aéronautique d'un coup d'oeil ! - Copyright ORBIFLY Décembre 2007 - Disclaimer

ORBIFLY MET'MAP TEAM :

Programmation & Développement : Alexandra Zaïnal
Sur une idée originale de : Baudouin d'Aumeries
Soutien technique & logistique : Manuel Goepfert
Assistance : Marc-Olivier Méhu




SOURCES & CREDITS :

   NOAA